Terminal Aerodrome Forecast
Issued by NWS

Home | Current Version | Previous Version | Text Only | Print | Product List | Glossary On
Versions: 1 2 3 4 5 6 7 8 9 10 11 12 13 14 15
000
FTAK31 PANC 081732
TAFADL
TAF
PADL 081732Z 0818/0918 36012KT P6SM VCSH OVC035
      TEMPO 0818/0820 36012G19KT
     FM090500 34008KT P6SM SCT070=

USA.gov is the U.S. government's official web portal to all federal, state and local government web resources and services.